Time;durP1;ratioP1;P1;durP2;ratioP2;P2;SDS_P1;SDS_P2;PMS_P1;PMS_P2;Temp;Humidity;BMP_temperature;BMP_pressure;BME280_temperature;BME280_humidity;BME280_pressure;Samples;Min_cycle;Max_cycle;Signal;HPM_P1;HPM_P2
2021/12/07 00:01:48;;;;;;;6.35;4.55;;;22.80;39.30;;;;;;5022360;28;20198;-45
2021/12/07 00:04:14;;;;;;;5.68;4.10;;;22.80;39.20;;;;;;5023614;28;20029;-44
2021/12/07 00:06:40;;;;;;;5.50;3.95;;;22.80;39.20;;;;;;5023924;28;20031;-46
2021/12/07 00:09:10;;;;;;;6.22;4.50;;;22.80;39.20;;;;;;5023427;28;20452;-44
2021/12/07 00:11:37;;;;;;;5.10;3.80;;;22.80;39.20;;;;;;5024141;28;20551;-48
2021/12/07 00:14:12;;;;;;;5.03;3.85;;;22.80;39.20;;;;;;5023142;28;20413;-46
2021/12/07 00:16:39;;;;;;;5.20;3.60;;;22.80;39.20;;;;;;5023314;28;20037;-45
2021/12/07 00:19:05;;;;;;;5.35;3.85;;;22.70;39.20;;;;;;5023580;28;20029;-45
2021/12/07 00:21:31;;;;;;;5.63;3.80;;;22.70;39.20;;;;;;5023607;28;20022;-45
2021/12/07 00:23:57;;;;;;;5.30;3.63;;;22.70;39.10;;;;;;5023158;28;20485;-46
2021/12/07 00:26:23;;;;;;;5.13;3.53;;;22.70;39.20;;;;;;5026346;28;20026;-46
2021/12/07 00:28:50;;;;;;;5.45;3.97;;;22.70;39.10;;;;;;5029831;28;20116;-45
2021/12/07 00:31:31;;;;;;;5.00;3.85;;;22.70;39.10;;;;;;5022893;28;20021;-46
2021/12/07 00:36:51;;;;;;;5.30;3.70;;;22.70;39.30;;;;;;5024096;28;20038;-46
2021/12/07 00:39:21;;;;;;;5.30;3.92;;;22.70;39.30;;;;;;5025197;28;20029;-44
2021/12/07 00:41:48;;;;;;;5.25;3.95;;;22.60;39.30;;;;;;5027388;28;20017;-47
2021/12/07 00:44:15;;;;;;;4.85;3.80;;;22.60;39.10;;;;;;5026930;28;20033;-46
2021/12/07 00:46:41;;;;;;;5.80;4.18;;;22.60;39.20;;;;;;5026246;28;20029;-45
2021/12/07 00:49:07;;;;;;;5.22;4.05;;;22.60;39.10;;;;;;5027392;28;20027;-45
2021/12/07 00:51:33;;;;;;;5.22;3.78;;;22.60;39.10;;;;;;5045589;28;20503;-46
2021/12/07 00:53:59;;;;;;;5.15;4.00;;;22.60;39.00;;;;;;5035425;28;20045;-46
2021/12/07 00:56:25;;;;;;;4.88;3.70;;;22.60;39.00;;;;;;5026979;28;20108;-45
2021/12/07 00:58:51;;;;;;;5.22;3.83;;;22.60;39.00;;;;;;5027052;28;20101;-45
2021/12/07 01:01:18;;;;;;;4.78;3.70;;;22.60;39.00;;;;;;5024974;28;20140;-43
2021/12/07 01:03:44;;;;;;;6.40;4.05;;;22.60;39.00;;;;;;5025792;28;20116;-46
2021/12/07 01:24:55;;;;;;;5.32;3.88;;;22.50;39.00;;;;;;5008017;28;20627;-44
2021/12/07 01:27:22;;;;;;;4.90;3.67;;;22.50;38.90;;;;;;5006824;28;20029;-45
2021/12/07 01:30:00;;;;;;;4.95;3.78;;;22.50;38.90;;;;;;5006795;28;20033;-45
2021/12/07 01:32:41;;;;;;;4.88;3.45;;;22.50;38.90;;;;;;5023863;28;20034;-44
2021/12/07 01:51:08;;;;;;;5.25;4.05;;;22.40;38.80;;;;;;5027514;28;20054;-45
2021/12/07 02:01:51;;;;;;;6.20;4.35;;;22.30;38.90;;;;;;5018287;28;20591;-45
2021/12/07 02:04:16;;;;;;;5.28;4.35;;;22.30;38.90;;;;;;5025536;28;20048;-46
2021/12/07 02:06:42;;;;;;;4.95;3.70;;;22.30;38.90;;;;;;5007813;28;20026;-45
2021/12/07 02:09:11;;;;;;;5.55;3.92;;;22.30;38.90;;;;;;5014981;28;20093;-44
2021/12/07 02:11:40;;;;;;;4.72;3.83;;;22.30;38.90;;;;;;5025309;28;20723;-47
2021/12/07 02:14:16;;;;;;;5.05;4.00;;;22.30;38.90;;;;;;5025277;28;20033;-45
2021/12/07 02:16:50;;;;;;;5.18;4.22;;;22.30;38.90;;;;;;5024652;28;20034;-45
2021/12/07 02:19:17;;;;;;;5.45;4.22;;;22.30;38.90;;;;;;5025015;28;20417;-44
2021/12/07 02:21:43;;;;;;;5.10;3.75;;;22.30;38.90;;;;;;5024422;28;20667;-47
2021/12/07 02:24:09;;;;;;;5.38;4.20;;;22.30;38.90;;;;;;5014604;28;20085;-45
2021/12/07 02:26:35;;;;;;;5.82;4.30;;;22.20;38.70;;;;;;5004012;28;20498;-46
2021/12/07 02:29:03;;;;;;;4.55;3.63;;;22.30;38.70;;;;;;5005424;28;20593;-46
2021/12/07 02:31:29;;;;;;;5.13;4.13;;;22.30;38.80;;;;;;5014939;28;20025;-46
2021/12/07 02:33:55;;;;;;;5.47;3.92;;;22.20;38.60;;;;;;5024711;28;20032;-46
2021/12/07 02:36:21;;;;;;;5.53;3.97;;;22.20;38.60;;;;;;5025339;28;20701;-44
2021/12/07 02:38:48;;;;;;;4.38;3.30;;;22.20;38.60;;;;;;5024744;28;20108;-46
2021/12/07 02:41:13;;;;;;;5.38;4.13;;;22.20;38.60;;;;;;5025024;28;20036;-45
2021/12/07 02:43:39;;;;;;;5.15;4.03;;;22.20;38.60;;;;;;5024109;28;20025;-45
2021/12/07 02:46:05;;;;;;;4.90;3.78;;;22.20;38.60;;;;;;5025151;28;20033;-45
2021/12/07 02:48:31;;;;;;;5.43;4.25;;;22.20;38.60;;;;;;5024941;28;20426;-45
2021/12/07 02:50:58;;;;;;;5.28;3.85;;;22.20;38.60;;;;;;5038444;28;20102;-45
2021/12/07 02:53:26;;;;;;;5.20;3.65;;;22.20;38.60;;;;;;5040430;28;20045;-46
2021/12/07 02:55:54;;;;;;;5.60;4.20;;;22.20;38.60;;;;;;5024665;28;20079;-44
2021/12/07 02:58:20;;;;;;;4.90;3.95;;;22.20;38.60;;;;;;5023351;28;20079;-47
2021/12/07 03:00:55;;;;;;;5.60;4.20;;;22.20;38.60;;;;;;5021789;28;20037;-45
2021/12/07 03:03:21;;;;;;;5.70;4.57;;;22.10;38.60;;;;;;5024361;28;20017;-45
2021/12/07 03:06:02;;;;;;;5.47;4.57;;;22.10;38.60;;;;;;5024291;28;20045;-45
2021/12/07 03:27:38;;;;;;;4.85;3.95;;;22.10;38.50;;;;;;5003477;28;20236;-46
2021/12/07 03:30:06;;;;;;;6.45;4.88;;;22.10;38.50;;;;;;5004531;28;20128;-45
2021/12/07 03:32:32;;;;;;;5.47;4.28;;;22.10;38.50;;;;;;5022170;28;20112;-45
2021/12/07 03:34:57;;;;;;;5.68;4.78;;;22.00;38.50;;;;;;5024205;28;20239;-46
2021/12/07 03:37:23;;;;;;;5.32;4.28;;;22.00;38.40;;;;;;5024529;28;20111;-46
2021/12/07 03:39:49;;;;;;;5.78;4.13;;;22.00;38.40;;;;;;5024062;28;20044;-45
2021/12/07 03:42:15;;;;;;;5.28;4.30;;;22.00;38.40;;;;;;5024034;28;20029;-45
2021/12/07 03:44:41;;;;;;;4.90;3.90;;;22.00;38.40;;;;;;5024700;28;20021;-47
2021/12/07 03:47:07;;;;;;;5.32;4.03;;;22.00;38.40;;;;;;5024036;28;20026;-46
2021/12/07 03:49:32;;;;;;;5.38;4.25;;;22.00;38.40;;;;;;5026125;28;20445;-46
2021/12/07 03:51:58;;;;;;;5.45;4.22;;;22.00;38.40;;;;;;5043923;28;20025;-45
2021/12/07 03:54:24;;;;;;;5.43;4.35;;;22.00;38.50;;;;;;5031337;28;20034;-44
2021/12/07 03:56:50;;;;;;;5.10;4.18;;;22.00;38.40;;;;;;5024108;28;20030;-45
2021/12/07 03:59:16;;;;;;;5.53;4.40;;;22.00;38.50;;;;;;5022169;28;20667;-46
2021/12/07 04:01:41;;;;;;;5.03;4.03;;;22.00;38.50;;;;;;5022855;28;20033;-45
2021/12/07 04:04:07;;;;;;;5.07;3.67;;;22.00;38.50;;;;;;5022215;28;20030;-45
2021/12/07 04:06:33;;;;;;;5.45;4.40;;;22.00;38.50;;;;;;5024114;28;20036;-45
2021/12/07 04:08:59;;;;;;;5.50;4.43;;;22.00;38.50;;;;;;5023671;28;20034;-45
2021/12/07 04:11:25;;;;;;;5.13;3.85;;;22.00;38.40;;;;;;5039474;28;20053;-46
2021/12/07 04:13:51;;;;;;;5.45;4.30;;;22.00;38.40;;;;;;5027581;28;20092;-45
2021/12/07 04:16:17;;;;;;;5.47;4.38;;;22.00;38.40;;;;;;5027777;28;20140;-45
2021/12/07 04:18:43;;;;;;;5.40;4.22;;;21.90;38.30;;;;;;5027929;28;20040;-47
2021/12/07 04:21:10;;;;;;;5.30;4.20;;;22.00;38.40;;;;;;5027966;28;20026;-46
2021/12/07 04:23:36;;;;;;;5.45;4.40;;;22.00;38.30;;;;;;5027263;28;20083;-45
2021/12/07 04:26:06;;;;;;;4.85;4.03;;;21.90;38.30;;;;;;5027770;28;20026;-46
2021/12/07 04:28:32;;;;;;;5.40;4.28;;;21.90;38.40;;;;;;5026363;28;20024;-46
2021/12/07 04:30:57;;;;;;;4.75;3.78;;;21.90;38.40;;;;;;5027712;28;20137;-46
2021/12/07 04:33:23;;;;;;;5.07;3.80;;;21.90;38.40;;;;;;5027266;28;20037;-45
2021/12/07 04:35:50;;;;;;;4.68;3.80;;;21.90;38.30;;;;;;5028030;28;20117;-45
2021/12/07 04:38:17;;;;;;;5.43;4.25;;;21.90;38.30;;;;;;5027012;28;20097;-45
2021/12/07 04:40:44;;;;;;;5.43;4.05;;;21.90;38.30;;;;;;5027464;28;20108;-46
2021/12/07 04:43:10;;;;;;;5.25;4.53;;;21.90;38.30;;;;;;5026647;28;20029;-46
2021/12/07 04:58:34;;;;;;;5.20;4.22;;;21.90;38.30;;;;;;5007223;28;20033;-46
2021/12/07 05:01:06;;;;;;;4.88;3.75;;;21.80;38.20;;;;;;5014304;28;20033;-45
2021/12/07 05:03:32;;;;;;;5.05;3.75;;;21.80;38.30;;;;;;5026857;28;20116;-45
2021/12/07 05:05:57;;;;;;;5.22;4.22;;;21.80;38.30;;;;;;5026671;28;20187;-45
2021/12/07 05:24:13;;;;;;;6.25;4.70;;;21.80;38.50;;;;;;5018527;28;20053;-46
2021/12/07 05:40:32;;;;;;;5.63;4.13;;;22.00;38.70;;;;;;5010416;28;20060;-45
2021/12/07 05:42:59;;;;;;;5.40;4.15;;;22.00;38.70;;;;;;5006065;28;20029;-46
2021/12/07 05:45:32;;;;;;;4.90;3.70;;;22.10;38.70;;;;;;5006470;28;20034;-45
2021/12/07 05:47:59;;;;;;;4.95;3.92;;;22.20;39.30;;;;;;5005906;28;20029;-46
2021/12/07 05:50:29;;;;;;;5.15;3.90;;;22.20;38.60;;;;;;5025158;28;20047;-44
2021/12/07 05:52:56;;;;;;;4.50;3.40;;;22.30;38.70;;;;;;5045500;28;20041;-45
2021/12/07 05:55:22;;;;;;;5.63;3.97;;;22.30;38.60;;;;;;5029030;28;20043;-44
2021/12/07 05:57:48;;;;;;;5.35;4.07;;;22.40;38.50;;;;;;5025607;28;20021;-45
2021/12/07 06:00:25;;;;;;;5.07;3.85;;;22.50;38.50;;;;;;5025883;28;20033;-46
2021/12/07 06:02:53;;;;;;;5.45;4.28;;;22.60;38.40;;;;;;5009417;28;20022;-47
2021/12/07 06:05:20;;;;;;;4.90;3.50;;;22.60;38.30;;;;;;5024677;28;20029;-46
2021/12/07 06:07:46;;;;;;;6.40;4.10;;;22.70;38.40;;;;;;5024687;28;20100;-45
2021/12/07 06:10:12;;;;;;;4.85;3.50;;;22.70;38.40;;;;;;5023556;28;20458;-44
2021/12/07 06:12:37;;;;;;;4.82;3.78;;;22.80;38.50;;;;;;5023335;28;20026;-44
2021/12/07 06:15:04;;;;;;;5.10;3.83;;;22.80;38.50;;;;;;5023507;28;20108;-44
2021/12/07 06:17:30;;;;;;;6.82;4.30;;;22.90;38.50;;;;;;5024883;28;20389;-44
2021/12/07 06:19:55;;;;;;;5.75;4.22;;;23.00;38.70;;;;;;5024861;28;20025;-44
2021/12/07 06:22:21;;;;;;;5.22;4.03;;;23.10;38.60;;;;;;5023235;28;20087;-45
2021/12/07 06:24:47;;;;;;;5.45;4.13;;;23.10;38.70;;;;;;5023436;28;20559;-45
2021/12/07 06:27:13;;;;;;;6.88;4.07;;;23.20;38.90;;;;;;5023987;28;20426;-46
2021/12/07 06:29:39;;;;;;;6.05;4.60;;;23.20;39.00;;;;;;5024627;28;20111;-45
2021/12/07 06:32:06;;;;;;;6.40;5.00;;;23.30;39.00;;;;;;5015252;28;20060;-46
2021/12/07 06:34:33;;;;;;;5.80;4.43;;;23.40;39.30;;;;;;5013704;28;20029;-44
2021/12/07 06:37:00;;;;;;;5.57;4.30;;;23.50;39.30;;;;;;5007295;28;20635;-45
2021/12/07 06:39:26;;;;;;;6.30;4.10;;;23.50;39.10;;;;;;5005047;28;20033;-45
2021/12/07 06:41:52;;;;;;;4.88;3.63;;;23.60;38.90;;;;;;5005089;28;20084;-45
2021/12/07 06:44:18;;;;;;;5.55;4.28;;;23.70;38.80;;;;;;5004884;28;20038;-45
2021/12/07 06:46:47;;;;;;;5.35;3.78;;;23.70;38.80;;;;;;5005207;28;20497;-45
2021/12/07 06:49:15;;;;;;;5.72;4.30;;;23.80;38.70;;;;;;5008580;28;20029;-45
2021/12/07 06:51:40;;;;;;;6.20;4.43;;;23.80;38.70;;;;;;5017535;28;20526;-46
2021/12/07 06:54:06;;;;;;;4.53;3.55;;;23.90;38.80;;;;;;5018310;28;20041;-44
2021/12/07 06:56:32;;;;;;;5.00;3.92;;;24.00;38.80;;;;;;5020888;28;20041;-45
2021/12/07 06:58:58;;;;;;;7.15;4.07;;;24.00;39.30;;;;;;5013360;28;20501;-42
2021/12/07 07:01:23;;;;;;;5.32;4.03;;;24.10;38.80;;;;;;5014187;28;20045;-44
2021/12/07 07:03:49;;;;;;;5.55;4.18;;;24.10;38.60;;;;;;5007969;28;20030;-45
2021/12/07 07:06:15;;;;;;;6.78;4.40;;;24.10;38.50;;;;;;5008076;28;20033;-46
2021/12/07 07:08:41;;;;;;;5.15;3.75;;;24.20;38.50;;;;;;5026042;28;20507;-45
2021/12/07 07:11:07;;;;;;;5.45;4.50;;;24.20;38.50;;;;;;5026353;28;20113;-45
2021/12/07 07:13:33;;;;;;;6.20;4.88;;;24.30;38.20;;;;;;5021195;28;20030;-45
2021/12/07 07:15:59;;;;;;;8.40;5.45;;;24.30;38.00;;;;;;5020718;28;20029;-45
2021/12/07 07:18:25;;;;;;;5.40;3.97;;;24.30;37.90;;;;;;5022973;28;20270;-47
2021/12/07 07:20:51;;;;;;;8.02;4.63;;;24.30;37.80;;;;;;5023938;28;20028;-47
2021/12/07 07:23:17;;;;;;;6.57;4.85;;;24.30;37.80;;;;;;5019836;28;20018;-44
2021/12/07 07:25:43;;;;;;;7.80;4.63;;;24.40;38.20;;;;;;5002035;28;20025;-46
2021/12/07 07:28:09;;;;;;;7.13;5.13;;;24.30;38.30;;;;;;5018789;28;20068;-47
2021/12/07 07:30:35;;;;;;;7.65;5.05;;;24.30;38.30;;;;;;5022164;28;20790;-45
2021/12/07 07:33:02;;;;;;;6.40;4.80;;;24.30;38.30;;;;;;5021476;28;20073;-50
2021/12/07 07:35:27;;;;;;;6.68;5.03;;;24.30;38.10;;;;;;5021929;28;20025;-46
2021/12/07 07:37:53;;;;;;;7.25;5.38;;;24.30;37.70;;;;;;5022420;28;20026;-47
2021/12/07 07:40:22;;;;;;;9.52;6.03;;;24.30;37.30;;;;;;5022250;28;20021;-47
2021/12/07 07:42:48;;;;;;;7.10;5.00;;;24.30;37.20;;;;;;5022445;28;20029;-47
2021/12/07 07:45:14;;;;;;;7.35;5.30;;;24.30;37.20;;;;;;5022456;28;20017;-46
2021/12/07 07:47:40;;;;;;;8.43;6.18;;;24.40;37.10;;;;;;5025341;28;20100;-47
2021/12/07 07:50:09;;;;;;;19.45;9.60;;;24.40;37.30;;;;;;5026671;28;20040;-46
2021/12/07 07:52:34;;;;;;;27.55;12.00;;;24.40;37.50;;;;;;5026665;28;20041;-46
2021/12/07 07:55:00;;;;;;;21.00;11.88;;;24.40;37.30;;;;;;5026262;28;20091;-46
2021/12/07 07:57:28;;;;;;;21.73;10.73;;;24.40;37.10;;;;;;5026792;28;20578;-46
2021/12/07 07:59:53;;;;;;;24.15;10.77;;;24.40;37.30;;;;;;5027568;28;20127;-46
2021/12/07 08:02:20;;;;;;;22.05;10.13;;;24.40;37.20;;;;;;5026130;28;20059;-45
2021/12/07 08:04:47;;;;;;;18.63;8.98;;;24.40;37.20;;;;;;5027855;28;20093;-44
2021/12/07 08:07:13;;;;;;;17.48;9.77;;;24.50;37.10;;;;;;5027430;28;20030;-45
2021/12/07 08:09:39;;;;;;;15.73;9.48;;;24.50;37.10;;;;;;5027050;28;20025;-45
2021/12/07 08:12:06;;;;;;;15.57;8.02;;;24.50;37.10;;;;;;5027453;28;20103;-44
2021/12/07 08:14:32;;;;;;;14.80;8.75;;;24.50;37.00;;;;;;5025670;28;20029;-45
2021/12/07 08:16:58;;;;;;;17.17;9.98;;;24.50;36.90;;;;;;5027529;28;20022;-45
2021/12/07 08:19:23;;;;;;;14.88;8.60;;;24.50;36.90;;;;;;5027712;28;20024;-45
2021/12/07 08:21:49;;;;;;;12.27;7.55;;;24.50;36.90;;;;;;5027417;28;20040;-45
2021/12/07 08:24:15;;;;;;;12.20;8.05;;;24.50;36.90;;;;;;5021638;28;20480;-45
2021/12/07 08:26:41;;;;;;;11.05;7.65;;;24.50;36.90;;;;;;5007807;28;20057;-45
2021/12/07 08:29:07;;;;;;;14.70;8.45;;;24.50;36.80;;;;;;5007727;28;20100;-45
2021/12/07 08:31:33;;;;;;;10.38;8.00;;;24.50;36.70;;;;;;5016408;28;20031;-45
2021/12/07 08:34:00;;;;;;;11.38;7.00;;;24.50;36.70;;;;;;5026593;28;20104;-45
2021/12/07 08:36:27;;;;;;;11.07;7.40;;;24.50;36.60;;;;;;5025661;28;20033;-45
2021/12/07 08:38:53;;;;;;;10.32;6.97;;;24.50;36.60;;;;;;5025619;28;20718;-45
2021/12/07 08:41:19;;;;;;;10.85;7.03;;;24.60;36.60;;;;;;5024261;28;20046;-45
2021/12/07 08:43:45;;;;;;;9.98;7.65;;;24.60;36.50;;;;;;5024615;28;20684;-46
2021/12/07 08:46:14;;;;;;;11.68;7.55;;;24.60;36.80;;;;;;5025967;28;20022;-45
2021/12/07 08:48:42;;;;;;;14.23;6.63;;;24.60;37.10;;;;;;5020035;28;20022;-46
2021/12/07 08:51:09;;;;;;;14.38;7.95;;;24.60;37.10;;;;;;5025182;28;20021;-44
2021/12/07 08:53:40;;;;;;;11.57;8.05;;;24.60;37.00;;;;;;5024852;28;20103;-44
2021/12/07 09:01:35;;;;;;;10.25;6.95;;;24.60;36.80;;;;;;5017038;28;20033;-45
2021/12/07 09:04:01;;;;;;;9.32;6.70;;;24.60;36.70;;;;;;5025810;28;20025;-44
2021/12/07 09:06:29;;;;;;;11.73;7.40;;;24.60;36.80;;;;;;5026972;28;20050;-44
2021/12/07 09:08:56;;;;;;;8.27;6.63;;;24.50;36.70;;;;;;5022535;28;20533;-44
2021/12/07 09:11:22;;;;;;;10.25;6.82;;;24.50;36.70;;;;;;5006583;28;20044;-44
2021/12/07 09:13:48;;;;;;;10.25;6.68;;;24.50;36.60;;;;;;5006043;28;20030;-45
2021/12/07 09:16:17;;;;;;;8.63;6.10;;;24.50;36.50;;;;;;5006681;28;20028;-45
2021/12/07 09:18:43;;;;;;;10.18;6.47;;;24.50;36.50;;;;;;5005998;28;20026;-45
2021/12/07 09:21:09;;;;;;;8.27;6.40;;;24.50;36.50;;;;;;5006299;28;20033;-45
2021/12/07 09:23:35;;;;;;;8.38;5.97;;;24.50;36.60;;;;;;5006281;28;20033;-44
2021/12/07 09:26:03;;;;;;;7.90;6.03;;;24.50;36.50;;;;;;5025065;28;20030;-43
2021/12/07 09:28:28;;;;;;;7.35;5.97;;;24.50;36.50;;;;;;5026474;28;20037;-44
2021/12/07 09:30:56;;;;;;;8.73;6.30;;;24.50;36.50;;;;;;5025247;28;20033;-45
2021/12/07 09:33:27;;;;;;;7.47;5.55;;;24.50;36.50;;;;;;5026452;28;20663;-45
2021/12/07 09:35:55;;;;;;;7.90;6.10;;;24.50;36.40;;;;;;5026076;28;20245;-45
2021/12/07 09:38:23;;;;;;;9.48;6.35;;;24.50;36.40;;;;;;5026335;28;20692;-45
2021/12/07 09:40:49;;;;;;;8.50;5.70;;;24.50;36.40;;;;;;5024534;28;20642;-44
2021/12/07 09:43:16;;;;;;;7.82;5.40;;;24.50;36.40;;;;;;5025705;28;20041;-44
2021/12/07 09:45:43;;;;;;;6.75;5.43;;;24.50;36.40;;;;;;5024698;28;20030;-44
2021/12/07 09:48:10;;;;;;;7.35;5.93;;;24.50;36.40;;;;;;5026017;28;20544;-44
2021/12/07 09:50:39;;;;;;;8.10;5.88;;;24.50;36.40;;;;;;5036479;28;20032;-44
2021/12/07 09:53:08;;;;;;;6.43;4.78;;;24.50;36.40;;;;;;5044284;28;20067;-45
2021/12/07 09:55:36;;;;;;;7.20;5.72;;;24.50;36.40;;;;;;5015900;28;20090;-45
2021/12/07 09:58:01;;;;;;;8.02;5.65;;;24.50;36.30;;;;;;5005748;28;20037;-45
2021/12/07 10:00:28;;;;;;;7.10;5.35;;;24.50;36.30;;;;;;5007544;28;20033;-44
2021/12/07 10:02:54;;;;;;;7.32;5.63;;;24.50;36.30;;;;;;5024039;28;20025;-45
2021/12/07 10:05:22;;;;;;;6.78;5.38;;;24.50;36.30;;;;;;5025897;28;20056;-45
2021/12/07 10:07:49;;;;;;;8.57;5.60;;;24.50;36.30;;;;;;5024000;28;20026;-45
2021/12/07 10:10:29;;;;;;;7.50;5.47;;;24.50;36.20;;;;;;5024830;28;20033;-45
2021/12/07 10:12:55;;;;;;;8.50;6.03;;;24.50;36.20;;;;;;5025447;28;20026;-45
2021/12/07 10:15:22;;;;;;;7.50;5.15;;;24.50;36.30;;;;;;5025757;28;20029;-45
2021/12/07 10:18:09;;;;;;;9.02;5.28;;;24.50;36.20;;;;;;5007804;28;20095;-45
2021/12/07 10:20:43;;;;;;;6.93;5.28;;;24.50;36.30;;;;;;5025146;28;20493;-45
2021/12/07 10:23:15;;;;;;;6.45;5.00;;;24.50;36.10;;;;;;5025360;28;20092;-45
2021/12/07 10:25:54;;;;;;;7.57;5.20;;;24.50;36.10;;;;;;5025304;28;20120;-45
2021/12/07 10:28:36;;;;;;;6.85;4.75;;;24.60;36.00;;;;;;5025540;28;20040;-44
2021/12/07 10:31:11;;;;;;;6.88;4.90;;;24.60;36.80;;;;;;5025003;28;20033;-45
2021/12/07 10:33:57;;;;;;;7.18;5.45;;;24.60;36.10;;;;;;5024804;28;20025;-45
2021/12/07 10:36:26;;;;;;;6.60;5.15;;;24.60;36.10;;;;;;5025233;28;20029;-45
2021/12/07 10:38:54;;;;;;;6.30;4.90;;;24.60;36.00;;;;;;5025062;28;20037;-44
2021/12/07 10:41:23;;;;;;;6.53;4.15;;;24.60;36.10;;;;;;5025241;28;20021;-45
2021/12/07 10:43:49;;;;;;;5.97;5.05;;;24.60;36.00;;;;;;5024631;28;20493;-46
2021/12/07 10:46:52;;;;;;;6.40;4.47;;;24.60;35.90;;;;;;5024272;28;20032;-44
2021/12/07 10:49:29;;;;;;;6.38;4.88;;;24.60;36.00;;;;;;5027450;28;20037;-44
2021/12/07 10:51:58;;;;;;;6.95;5.22;;;24.60;35.90;;;;;;5045041;28;20054;-44
2021/12/07 10:54:24;;;;;;;6.45;4.82;;;24.60;35.90;;;;;;5035916;28;20026;-45
2021/12/07 10:56:51;;;;;;;5.45;4.05;;;24.60;36.00;;;;;;5003348;28;20030;-44
2021/12/07 10:59:18;;;;;;;5.47;4.30;;;24.60;35.90;;;;;;5005060;28;20018;-45
2021/12/07 11:01:48;;;;;;;6.15;4.82;;;24.60;35.90;;;;;;5016636;28;20148;-44
2021/12/07 11:04:33;;;;;;;6.25;4.97;;;24.70;35.80;;;;;;5023125;28;20540;-44
2021/12/07 11:07:17;;;;;;;5.63;4.57;;;24.60;35.80;;;;;;5024596;28;20030;-45
2021/12/07 11:09:56;;;;;;;6.70;4.93;;;24.70;35.90;;;;;;5024287;28;20030;-45
2021/12/07 11:12:22;;;;;;;5.72;4.35;;;24.70;35.90;;;;;;5022741;28;20025;-45
2021/12/07 11:14:58;;;;;;;5.63;4.30;;;24.70;36.00;;;;;;5024978;28;20040;-45
2021/12/07 11:17:31;;;;;;;6.72;5.00;;;24.70;36.00;;;;;;5039732;28;20480;-45
2021/12/07 11:19:58;;;;;;;5.85;4.30;;;24.60;35.90;;;;;;5024087;28;20033;-45
2021/12/07 11:22:27;;;;;;;6.32;4.68;;;24.70;36.00;;;;;;5024149;28;20083;-45
2021/12/07 11:24:54;;;;;;;6.15;4.63;;;24.70;36.00;;;;;;5036538;28;20670;-45
2021/12/07 11:30:17;;;;;;;6.07;4.22;;;24.70;35.90;;;;;;5003515;28;20409;-44
2021/12/07 11:32:54;;;;;;;6.10;4.68;;;24.60;35.90;;;;;;5024200;28;20223;-45
2021/12/07 11:35:24;;;;;;;7.00;4.90;;;24.60;35.80;;;;;;5024747;28;20028;-44
2021/12/07 11:37:50;;;;;;;6.22;4.72;;;24.60;35.80;;;;;;5024312;28;20036;-45
2021/12/07 11:40:23;;;;;;;6.43;4.75;;;24.70;35.90;;;;;;5014142;28;20026;-44
2021/12/07 11:42:49;;;;;;;5.95;4.43;;;24.70;35.90;;;;;;5004604;28;20030;-44
2021/12/07 11:45:25;;;;;;;6.45;4.95;;;24.60;35.90;;;;;;5005315;28;20057;-45
2021/12/07 11:47:57;;;;;;;6.20;4.82;;;24.60;35.90;;;;;;5004778;28;20110;-44
2021/12/07 11:50:31;;;;;;;5.75;4.10;;;24.60;35.90;;;;;;5022812;28;20044;-44
2021/12/07 11:53:03;;;;;;;5.50;3.97;;;24.60;35.90;;;;;;5043849;28;20036;-44
2021/12/07 11:55:31;;;;;;;6.13;4.68;;;24.60;35.80;;;;;;5031974;28;20041;-44
2021/12/07 11:57:58;;;;;;;5.32;4.07;;;24.60;35.80;;;;;;5024411;28;20105;-44
2021/12/07 12:00:29;;;;;;;6.07;4.72;;;24.60;35.70;;;;;;5024427;28;20418;-44
2021/12/07 12:02:55;;;;;;;5.93;4.72;;;24.60;35.80;;;;;;5023843;28;20488;-44
2021/12/07 12:05:21;;;;;;;7.63;5.45;;;24.60;35.70;;;;;;5024287;28;20026;-45
2021/12/07 12:07:48;;;;;;;5.75;4.22;;;24.60;35.70;;;;;;5024227;28;20084;-44
2021/12/07 12:10:17;;;;;;;6.63;4.88;;;24.60;35.80;;;;;;5024438;28;20285;-45
2021/12/07 12:12:52;;;;;;;5.65;4.50;;;24.60;35.70;;;;;;5023883;28;20080;-45
2021/12/07 12:15:43;;;;;;;6.15;4.80;;;24.70;35.80;;;;;;5024328;28;20030;-44
2021/12/07 12:18:35;;;;;;;5.57;4.45;;;24.70;35.90;;;;;;5024251;28;20060;-45
2021/12/07 12:21:32;;;;;;;6.43;4.05;;;24.70;35.80;;;;;;5024189;28;20026;-45
2021/12/07 12:23:57;;;;;;;5.90;4.53;;;24.60;35.80;;;;;;5022543;28;20124;-44
2021/12/07 12:26:25;;;;;;;6.25;4.60;;;24.70;35.70;;;;;;5023948;28;20056;-44
2021/12/07 12:28:53;;;;;;;5.90;4.70;;;24.70;36.10;;;;;;5024070;28;20036;-45
2021/12/07 12:31:40;;;;;;;6.07;3.97;;;24.70;35.70;;;;;;5024302;28;20064;-45
2021/12/07 12:34:15;;;;;;;6.05;4.63;;;24.60;35.70;;;;;;5027380;28;20025;-45
2021/12/07 12:37:04;;;;;;;5.82;4.47;;;24.60;35.70;;;;;;5027295;28;20095;-45
2021/12/07 12:40:17;;;;;;;7.22;4.75;;;24.60;35.80;;;;;;5024611;28;20010;-44
2021/12/07 12:42:46;;;;;;;5.97;4.28;;;24.70;35.90;;;;;;5014954;28;20069;-45
2021/12/07 12:45:22;;;;;;;6.45;4.80;;;24.60;35.80;;;;;;5007650;28;20044;-44
2021/12/07 12:47:57;;;;;;;6.95;5.03;;;24.60;35.70;;;;;;5007749;28;20513;-44
2021/12/07 12:50:49;;;;;;;6.43;5.20;;;24.60;35.70;;;;;;5025623;28;20025;-45
2021/12/07 12:53:23;;;;;;;6.32;4.60;;;24.60;35.70;;;;;;5046491;28;20037;-44
2021/12/07 12:56:00;;;;;;;5.85;4.22;;;24.60;35.70;;;;;;5032219;28;20033;-45
2021/12/07 12:58:30;;;;;;;6.43;4.25;;;24.60;35.70;;;;;;5027418;28;20033;-45
2021/12/07 13:01:16;;;;;;;5.80;4.55;;;24.50;35.70;;;;;;5027213;28;20112;-45
2021/12/07 13:03:50;;;;;;;5.53;4.40;;;24.60;35.70;;;;;;5026805;28;20043;-44
2021/12/07 13:06:20;;;;;;;6.10;4.68;;;24.50;35.70;;;;;;5027128;28;20041;-44
2021/12/07 13:08:52;;;;;;;6.22;4.72;;;24.60;35.70;;;;;;5026567;28;20033;-44
2021/12/07 13:11:43;;;;;;;6.10;5.13;;;24.50;35.70;;;;;;5026478;28;20033;-45
2021/12/07 13:14:24;;;;;;;5.55;4.10;;;24.50;35.80;;;;;;5025384;28;20064;-45
2021/12/07 13:17:15;;;;;;;5.82;4.15;;;24.50;35.80;;;;;;5026405;28;20219;-45
2021/12/07 13:20:08;;;;;;;6.75;4.95;;;24.50;35.90;;;;;;5027345;28;20090;-44
2021/12/07 13:22:38;;;;;;;6.03;4.78;;;24.50;35.90;;;;;;5024856;28;20622;-44
2021/12/07 13:25:43;;;;;;;6.30;4.60;;;24.50;35.80;;;;;;5018640;28;20038;-43
2021/12/07 13:28:22;;;;;;;4.95;3.78;;;24.50;35.80;;;;;;5023684;28;20597;-45
2021/12/07 13:30:52;;;;;;;5.93;4.75;;;24.50;35.70;;;;;;5027857;28;20045;-45
2021/12/07 13:33:18;;;;;;;6.35;4.38;;;24.50;35.80;;;;;;5021635;28;20065;-44
2021/12/07 13:35:44;;;;;;;5.57;4.63;;;24.50;35.80;;;;;;5007165;28;20329;-44
2021/12/07 13:38:21;;;;;;;6.68;4.68;;;24.50;35.70;;;;;;5006641;28;20536;-45
2021/12/07 13:40:49;;;;;;;6.03;4.57;;;24.50;35.80;;;;;;5019443;28;20541;-45
2021/12/07 13:43:35;;;;;;;6.70;5.00;;;24.50;35.70;;;;;;5023675;28;20653;-45
2021/12/07 13:46:08;;;;;;;5.57;4.25;;;24.40;35.70;;;;;;5026787;28;20030;-45
2021/12/07 13:48:34;;;;;;;5.95;4.18;;;24.50;35.70;;;;;;5026404;28;20091;-44
2021/12/07 13:51:00;;;;;;;6.18;4.10;;;24.50;35.70;;;;;;5040455;28;20033;-44
2021/12/07 13:53:26;;;;;;;5.82;4.28;;;24.50;35.80;;;;;;5046081;28;20111;-44
2021/12/07 13:55:52;;;;;;;7.05;4.47;;;24.50;35.70;;;;;;5032799;28;20041;-44
2021/12/07 13:58:18;;;;;;;6.63;4.65;;;24.50;35.70;;;;;;5026327;28;20026;-45
2021/12/07 14:00:44;;;;;;;5.15;4.05;;;24.50;35.70;;;;;;5026398;28;20577;-45
2021/12/07 14:03:13;;;;;;;6.30;4.70;;;24.50;35.70;;;;;;5025737;28;20048;-48
2021/12/07 14:05:43;;;;;;;5.00;3.97;;;24.50;35.70;;;;;;5026145;28;20083;-45
2021/12/07 14:08:12;;;;;;;5.35;4.25;;;24.50;35.70;;;;;;5025743;28;20116;-45
2021/12/07 14:10:48;;;;;;;5.10;3.70;;;24.50;35.80;;;;;;5026028;28;20036;-44
2021/12/07 14:13:15;;;;;;;5.03;4.00;;;24.50;35.70;;;;;;5026046;28;20065;-45
2021/12/07 14:15:43;;;;;;;6.18;4.57;;;24.50;35.70;;;;;;5025926;28;20678;-44
2021/12/07 14:18:15;;;;;;;4.68;3.47;;;24.50;35.70;;;;;;5025968;28;20487;-45
2021/12/07 14:20:42;;;;;;;5.72;4.03;;;24.50;35.70;;;;;;5025618;28;20021;-45
2021/12/07 14:23:23;;;;;;;4.90;3.38;;;24.50;35.70;;;;;;5024123;28;20615;-45
2021/12/07 14:26:07;;;;;;;5.90;4.28;;;24.50;35.70;;;;;;5012691;28;20088;-45
2021/12/07 14:28:44;;;;;;;5.55;4.45;;;24.50;35.70;;;;;;5006258;28;20026;-44
2021/12/07 14:31:16;;;;;;;5.32;4.22;;;24.40;35.70;;;;;;5012724;28;20034;-44
2021/12/07 14:33:47;;;;;;;4.90;3.65;;;24.50;35.80;;;;;;5024053;28;20025;-45
2021/12/07 14:36:16;;;;;;;5.90;4.20;;;24.50;35.70;;;;;;5025413;28;20061;-45
2021/12/07 14:38:45;;;;;;;6.68;4.95;;;24.40;35.50;;;;;;5025402;28;20025;-45
2021/12/07 14:41:13;;;;;;;4.90;3.80;;;24.40;35.50;;;;;;5010928;28;20022;-45
2021/12/07 14:43:41;;;;;;;5.95;4.57;;;24.40;35.70;;;;;;5005280;28;20025;-44
2021/12/07 14:46:09;;;;;;;4.95;3.58;;;24.40;35.60;;;;;;5005642;28;20034;-45
2021/12/07 14:48:36;;;;;;;4.95;4.10;;;24.40;35.70;;;;;;5006070;28;20030;-44
2021/12/07 14:51:11;;;;;;;5.63;4.45;;;24.40;35.70;;;;;;5034416;28;20432;-45
2021/12/07 14:53:40;;;;;;;5.55;3.90;;;24.30;35.60;;;;;;5043740;28;20025;-44